Containerships 6 — DABH — position and weather

sailwx.info

Track history (hours):
 
Tides and Currents Weather Stations Pressure Air Temp Water Temp Dewpoint Dewpoint Depression Visibility Wind Speed Wind Dir Waves Ship Positions

Containerships 6

Last reported at 2017-Jan-21 18:33 UTC. Time now 2017-Jan-22 03:45 UTC.
Position N 59°22' E 022°13'.

Length 155 m; beam 21.8 m; draft 8.9 m.

Type: Ship (hazmat cat A). MMSI: 211315096.

Date/timePositionNaut miles runAvg speedWind from/ knotsBaromVisibWave heightAir tempDewpointWater temp
2017-Jan-21 18:33N 59°22' E 022°13'2718.6
2017-Jan-21 17:06N 59°35' E 022°60'1218.9
2017-Jan-21 16:29N 59°39' E 023°21'1718.7
2017-Jan-21 15:33N 59°43' E 023°55'70 2.9
2017-Jan-20 15:29N 59°59' E 026°10'1617.3
2017-Jan-20 14:33N 60°01' E 026°41'1716.6
2017-Jan-20 13:33N 60°03' E 027°14'1717.4
2017-Jan-20 12:34N 60°12' E 027°45'2017.1
2017-Jan-20 11:24N 60°06' E 028°23'1315.9
2017-Jan-20 10:34N 60°02' E 028°49'1413.6
2017-Jan-20 09:33N 60°02' E 029°16'11 9.5
2017-Jan-20 08:25N 60°00' E 029°37'3 3.1
2017-Jan-20 07:32N 60°00' E 029°43'0 0.0
2017-Jan-20 06:31N 60°00' E 029°43'0 0.0
2017-Jan-20 05:16N 60°00' E 029°43'0 0.0
2017-Jan-20 04:31N 60°00' E 029°43'0 0.0
2017-Jan-20 03:31N 60°00' E 029°43'0 0.0
2017-Jan-20 02:31N 60°00' E 029°43'0 0.0
2017-Jan-20 01:28N 60°00' E 029°43'0 0.0
2017-Jan-20 00:31N 60°00' E 029°43'0 0.0
2017-Jan-19 23:31N 60°00' E 029°43'0 0.0
2017-Jan-19 22:31N 60°00' E 029°43'0 0.0
2017-Jan-19 20:25N 60°00' E 029°43'0 0.0
2017-Jan-19 19:31N 60°00' E 029°43'0 0.0
2017-Jan-19 18:31N 60°00' E 029°43'0 0.0
2017-Jan-19 17:28N 60°00' E 029°43'0 0.0
2017-Jan-19 16:31N 60°00' E 029°43'0 0.0
2017-Jan-19 15:33N 60°00' E 029°43'4 4.3
2017-Jan-19 14:33N 60°01' E 029°34'2 1.9
2017-Jan-19 13:32N 60°01' E 029°30'2 2.3
2017-Jan-19 12:27N 60°01' E 029°25'1212.9
2017-Jan-19 11:33N 60°02' E 029°02'1817.8
2017-Jan-19 10:34N 60°03' E 028°27'1818.1
2017-Jan-19 09:33N 60°10' E 027°54'1717.2
2017-Jan-19 08:32N 60°03' E 027°21'1716.8
2017-Jan-19 07:31N 59°59' E 026°48'1717.4
2017-Jan-19 06:33N 59°55' E 026°15'71 5.7
2017-Jan-18 18:05N 59°39' E 023°58'1018.9
2017-Jan-18 17:33N 59°36' E 023°40'1918.8
2017-Jan-18 16:33N 59°31' E 023°04'33118.3
2017-Jan-17 22:29N 55°42' E 015°38'1718.7
2017-Jan-17 21:33N 55°34' E 015°11'1918.5
2017-Jan-17 20:33N 55°25' E 014°43'1818.2
2017-Jan-17 19:33N 55°10' E 014°23'1818.2
2017-Jan-17 18:33N 54°59' E 013°58'3618.2
2017-Jan-17 16:33N 54°47' E 012°58'1817.8
2017-Jan-17 15:33N 54°39' E 012°31'1717.2
2017-Jan-17 14:33N 54°26' E 012°11'2416.5
2017-Jan-17 13:06N 54°29' E 011°30'917.3
2017-Jan-17 12:33N 54°33' E 011°15'1716.8
2017-Jan-17 11:33N 54°33' E 010°46'1716.6
2017-Jan-17 10:31N 54°29' E 010°17'33 6.2
2017-Jan-17 05:07N 54°11' E 009°29'5 8.2
2017-Jan-17 04:33N 54°09' E 009°22'7 6.6
2017-Jan-17 03:31N 54°03' E 009°18'6 6.7
2017-Jan-17 02:34N 53°57' E 009°14'4 4.4
2017-Jan-17 01:34N 53°54' E 009°09'3 3.0
2017-Jan-17 00:34N 53°52' E 009°04'1514.8
2017-Jan-16 23:34N 53°56' E 008°40'1818.3
2017-Jan-16 22:33N 53°59' E 008°09'1918.8
2017-Jan-16 21:31N 53°55' E 007°37'10417.3
2017-Jan-16 15:31N 53°25' E 004°49'1716.3
2017-Jan-16 14:27N 53°11' E 004°31'1517.1
2017-Jan-16 13:33N 52°58' E 004°20'1716.9
2017-Jan-16 12:33N 52°42' E 004°07'1716.6
2017-Jan-16 11:33N 52°28' E 003°55'1716.6
2017-Jan-16 10:33N 52°11' E 003°54'1312.7
2017-Jan-16 09:33N 51°60' E 004°02'1313.3
2017-Jan-16 08:33N 51°54' E 004°22'2 2.2
2017-Jan-16 07:33N 51°53' E 004°25'0 0.0
2017-Jan-16 06:33N 51°53' E 004°25'0 0.0
2017-Jan-16 05:33N 51°53' E 004°25'0 0.0
2017-Jan-16 04:33N 51°53' E 004°25'0 0.0
2017-Jan-16 03:33N 51°53' E 004°25'0 0.0
2017-Jan-16 02:33N 51°53' E 004°25'0 0.0
2017-Jan-16 01:33N 51°53' E 004°25'0 0.0
2017-Jan-16 00:33N 51°53' E 004°25'0 0.0
2017-Jan-15 23:33N 51°53' E 004°25'0 0.0
2017-Jan-15 22:33N 51°53' E 004°25'0 0.0
2017-Jan-15 21:33N 51°53' E 004°25'0 0.0
2017-Jan-15 20:33N 51°53' E 004°25'0 0.0
2017-Jan-15 19:33N 51°53' E 004°25'0 0.0
2017-Jan-15 18:33N 51°53' E 004°25'0 0.0
2017-Jan-15 17:33N 51°53' E 004°25'0 0.0
2017-Jan-15 16:33N 51°53' E 004°25'0 0.0
2017-Jan-15 15:33N 51°53' E 004°25'0 0.0
2017-Jan-15 14:33N 51°53' E 004°25'2 2.1
2017-Jan-15 13:33N 51°54' E 004°22'10 9.7
2017-Jan-15 12:33N 51°58' E 004°08'1312.9
2017-Jan-15 11:33N 52°02' E 003°48'8019.0
2017-Jan-15 07:21N 52°46' E 001°58'1519.1
2017-Jan-15 06:34N 52°54' E 001°37'1818.2
2017-Jan-15 05:33N 53°09' E 001°20'5618.1
2017-Jan-15 02:28N 53°55' E 000°26'1617.7
2017-Jan-15 01:33N 54°07' E 000°07'1717.2
2017-Jan-15 00:33N 54°20' W 000°12'19 0.9
2017-Jan-14 03:11N 54°36' W 000°31'3610.0
2017-Jan-13 23:33N 54°27' E 000°29'26812.7
2017-Jan-13 02:33N 54°02' E 008°05'1717.2
2017-Jan-13 01:33N 53°58' E 008°34'1514.8
2017-Jan-13 00:33N 53°51' E 008°55'8 8.4
2017-Jan-12 23:33N 53°54' E 009°09'4 4.1
2017-Jan-12 22:33N 53°57' E 009°14'6 6.2
2017-Jan-12 21:33N 54°02' E 009°18'5 5.4
2017-Jan-12 20:33N 54°08' E 009°20'50 5.5
2017-Jan-12 11:34N 54°34' E 010°32'1616.3
2017-Jan-12 10:34N 54°36' E 011°00'1515.1
2017-Jan-12 09:34N 54°32' E 011°26'1616.0
2017-Jan-12 08:34N 54°27' E 011°52'1313.5
2017-Jan-12 07:34N 54°31' E 012°13'9115.2
2017-Jan-12 01:33N 54°40' E 014°50'1616.5
2017-Jan-12 00:33N 54°42' E 015°18'  
Track history (hours):
 
Tides and Currents Weather Stations Pressure Air Temp Water Temp Dewpoint Dewpoint Depression Visibility Wind Speed Wind Dir Waves Ship Positions

Containerships 6

Last reported at 2017-Jan-21 18:33 UTC. Time now 2017-Jan-22 03:45 UTC.
Position N 59°22' E 022°13'.

Length 155 m; beam 21.8 m; draft 8.9 m.

Type: Ship (hazmat cat A). MMSI: 211315096.

Date/timePositionNaut miles runAvg speedWind from/ knotsBaromVisibWave heightAir tempDewpointWater temp
2017-Jan-21 18:33N 59°22' E 022°13'2718.6
2017-Jan-21 17:06N 59°35' E 022°60'1218.9
2017-Jan-21 16:29N 59°39' E 023°21'1718.7
2017-Jan-21 15:33N 59°43' E 023°55'70 2.9
2017-Jan-20 15:29N 59°59' E 026°10'1617.3
2017-Jan-20 14:33N 60°01' E 026°41'1716.6
2017-Jan-20 13:33N 60°03' E 027°14'1717.4
2017-Jan-20 12:34N 60°12' E 027°45'2017.1
2017-Jan-20 11:24N 60°06' E 028°23'1315.9
2017-Jan-20 10:34N 60°02' E 028°49'1413.6
2017-Jan-20 09:33N 60°02' E 029°16'11 9.5
2017-Jan-20 08:25N 60°00' E 029°37'3 3.1
2017-Jan-20 07:32N 60°00' E 029°43'0 0.0
2017-Jan-20 06:31N 60°00' E 029°43'0 0.0
2017-Jan-20 05:16N 60°00' E 029°43'0 0.0
2017-Jan-20 04:31N 60°00' E 029°43'0 0.0
2017-Jan-20 03:31N 60°00' E 029°43'0 0.0
2017-Jan-20 02:31N 60°00' E 029°43'0 0.0
2017-Jan-20 01:28N 60°00' E 029°43'0 0.0
2017-Jan-20 00:31N 60°00' E 029°43'0 0.0
2017-Jan-19 23:31N 60°00' E 029°43'0 0.0
2017-Jan-19 22:31N 60°00' E 029°43'0 0.0
2017-Jan-19 20:25N 60°00' E 029°43'0 0.0
2017-Jan-19 19:31N 60°00' E 029°43'0 0.0
2017-Jan-19 18:31N 60°00' E 029°43'0 0.0
2017-Jan-19 17:28N 60°00' E 029°43'0 0.0
2017-Jan-19 16:31N 60°00' E 029°43'0 0.0
2017-Jan-19 15:33N 60°00' E 029°43'4 4.3
2017-Jan-19 14:33N 60°01' E 029°34'2 1.9
2017-Jan-19 13:32N 60°01' E 029°30'2 2.3
2017-Jan-19 12:27N 60°01' E 029°25'1212.9
2017-Jan-19 11:33N 60°02' E 029°02'1817.8
2017-Jan-19 10:34N 60°03' E 028°27'1818.1
2017-Jan-19 09:33N 60°10' E 027°54'1717.2
2017-Jan-19 08:32N 60°03' E 027°21'1716.8
2017-Jan-19 07:31N 59°59' E 026°48'1717.4
2017-Jan-19 06:33N 59°55' E 026°15'71 5.7
2017-Jan-18 18:05N 59°39' E 023°58'1018.9
2017-Jan-18 17:33N 59°36' E 023°40'1918.8
2017-Jan-18 16:33N 59°31' E 023°04'33118.3
2017-Jan-17 22:29N 55°42' E 015°38'1718.7
2017-Jan-17 21:33N 55°34' E 015°11'1918.5
2017-Jan-17 20:33N 55°25' E 014°43'1818.2
2017-Jan-17 19:33N 55°10' E 014°23'1818.2
2017-Jan-17 18:33N 54°59' E 013°58'3618.2
2017-Jan-17 16:33N 54°47' E 012°58'1817.8
2017-Jan-17 15:33N 54°39' E 012°31'1717.2
2017-Jan-17 14:33N 54°26' E 012°11'2416.5
2017-Jan-17 13:06N 54°29' E 011°30'917.3
2017-Jan-17 12:33N 54°33' E 011°15'1716.8
2017-Jan-17 11:33N 54°33' E 010°46'1716.6
2017-Jan-17 10:31N 54°29' E 010°17'33 6.2
2017-Jan-17 05:07N 54°11' E 009°29'5 8.2
2017-Jan-17 04:33N 54°09' E 009°22'7 6.6
2017-Jan-17 03:31N 54°03' E 009°18'6 6.7
2017-Jan-17 02:34N 53°57' E 009°14'4 4.4
2017-Jan-17 01:34N 53°54' E 009°09'3 3.0
2017-Jan-17 00:34N 53°52' E 009°04'1514.8
2017-Jan-16 23:34N 53°56' E 008°40'1818.3
2017-Jan-16 22:33N 53°59' E 008°09'1918.8
2017-Jan-16 21:31N 53°55' E 007°37'10417.3
2017-Jan-16 15:31N 53°25' E 004°49'1716.3
2017-Jan-16 14:27N 53°11' E 004°31'1517.1
2017-Jan-16 13:33N 52°58' E 004°20'1716.9
2017-Jan-16 12:33N 52°42' E 004°07'1716.6
2017-Jan-16 11:33N 52°28' E 003°55'1716.6
2017-Jan-16 10:33N 52°11' E 003°54'1312.7
2017-Jan-16 09:33N 51°60' E 004°02'1313.3
2017-Jan-16 08:33N 51°54' E 004°22'2 2.2
2017-Jan-16 07:33N 51°53' E 004°25'0 0.0
2017-Jan-16 06:33N 51°53' E 004°25'0 0.0
2017-Jan-16 05:33N 51°53' E 004°25'0 0.0
2017-Jan-16 04:33N 51°53' E 004°25'0 0.0
2017-Jan-16 03:33N 51°53' E 004°25'0 0.0
2017-Jan-16 02:33N 51°53' E 004°25'0 0.0
2017-Jan-16 01:33N 51°53' E 004°25'0 0.0
2017-Jan-16 00:33N 51°53' E 004°25'0 0.0
2017-Jan-15 23:33N 51°53' E 004°25'0 0.0
2017-Jan-15 22:33N 51°53' E 004°25'0 0.0
2017-Jan-15 21:33N 51°53' E 004°25'0 0.0
2017-Jan-15 20:33N 51°53' E 004°25'0 0.0
2017-Jan-15 19:33N 51°53' E 004°25'0 0.0
2017-Jan-15 18:33N 51°53' E 004°25'0 0.0
2017-Jan-15 17:33N 51°53' E 004°25'0 0.0
2017-Jan-15 16:33N 51°53' E 004°25'0 0.0
2017-Jan-15 15:33N 51°53' E 004°25'0 0.0
2017-Jan-15 14:33N 51°53' E 004°25'2 2.1
2017-Jan-15 13:33N 51°54' E 004°22'10 9.7
2017-Jan-15 12:33N 51°58' E 004°08'1312.9
2017-Jan-15 11:33N 52°02' E 003°48'8019.0
2017-Jan-15 07:21N 52°46' E 001°58'1519.1
2017-Jan-15 06:34N 52°54' E 001°37'1818.2
2017-Jan-15 05:33N 53°09' E 001°20'5618.1
2017-Jan-15 02:28N 53°55' E 000°26'1617.7
2017-Jan-15 01:33N 54°07' E 000°07'1717.2
2017-Jan-15 00:33N 54°20' W 000°12'19 0.9
2017-Jan-14 03:11N 54°36' W 000°31'3610.0
2017-Jan-13 23:33N 54°27' E 000°29'26812.7
2017-Jan-13 02:33N 54°02' E 008°05'1717.2
2017-Jan-13 01:33N 53°58' E 008°34'1514.8
2017-Jan-13 00:33N 53°51' E 008°55'8 8.4
2017-Jan-12 23:33N 53°54' E 009°09'4 4.1
2017-Jan-12 22:33N 53°57' E 009°14'6 6.2
2017-Jan-12 21:33N 54°02' E 009°18'5 5.4
2017-Jan-12 20:33N 54°08' E 009°20'50 5.5
2017-Jan-12 11:34N 54°34' E 010°32'1616.3
2017-Jan-12 10:34N 54°36' E 011°00'1515.1
2017-Jan-12 09:34N 54°32' E 011°26'1616.0
2017-Jan-12 08:34N 54°27' E 011°52'1313.5
2017-Jan-12 07:34N 54°31' E 012°13'9115.2
2017-Jan-12 01:33N 54°40' E 014°50'1616.5
2017-Jan-12 00:33N 54°42' E 015°18'  

Dump ship's entire track history